Time;durP1;ratioP1;P1;durP2;ratioP2;P2;SDS_P1;SDS_P2;PMS_P1;PMS_P2;Temp;Humidity;BMP_temperature;BMP_pressure;BME280_temperature;BME280_humidity;BME280_pressure;Samples;Min_cycle;Max_cycle;Signal;HPM_P1;HPM_P2
2021/11/22 00:00:53;;;;;;;8.03;3.83;;;7.30;99.90;7.10;100368.00;;;;4935906;28;96415;-64
2021/11/22 00:03:19;;;;;;;8.93;4.50;;;7.30;99.90;7.10;100373.00;;;;4936455;28;92937;-64
2021/11/22 00:05:45;;;;;;;7.63;4.37;;;7.20;99.90;7.10;100369.00;;;;4935469;28;93655;-63
2021/11/22 00:08:11;;;;;;;12.30;4.13;;;7.20;99.90;7.10;100377.00;;;;4935621;28;93954;-65
2021/11/22 00:10:37;;;;;;;8.00;4.27;;;7.20;99.90;7.00;100376.00;;;;4935339;28;92355;-63
2021/11/22 00:13:04;;;;;;;6.40;4.23;;;7.60;99.90;7.00;100382.00;;;;4932604;28;93012;-64
2021/11/22 00:15:30;;;;;;;5.90;4.27;;;7.10;99.90;7.00;100381.00;;;;4932047;28;92839;-63
2021/11/22 00:17:55;;;;;;;5.23;3.77;;;7.10;99.90;6.90;100377.00;;;;4935748;28;93924;-62
2021/11/22 00:20:23;;;;;;;8.83;4.47;;;7.10;99.90;6.90;100384.00;;;;4933399;28;92908;-63
2021/11/22 00:22:51;;;;;;;10.83;5.73;;;7.10;99.90;6.90;100380.00;;;;4935999;28;92932;-63
2021/11/22 00:25:18;;;;;;;10.23;4.50;;;7.00;99.90;6.90;100386.00;;;;4935051;28;94108;-63
2021/11/22 00:27:45;;;;;;;6.10;4.23;;;6.90;99.90;6.80;100390.00;;;;4919393;28;93845;-64
2021/11/22 00:30:13;;;;;;;7.07;4.47;;;7.00;99.90;6.80;100390.00;;;;4916620;28;92775;-64
2021/11/22 00:32:39;;;;;;;11.83;8.27;;;7.00;99.90;6.80;100398.00;;;;4916303;28;92940;-64
2021/11/22 00:35:06;;;;;;;9.67;6.77;;;6.90;99.90;6.80;100392.00;;;;4917120;28;93639;-63
2021/11/22 00:37:36;;;;;;;13.97;7.50;;;7.00;99.90;6.90;100399.00;;;;4916185;28;92908;-64
2021/11/22 00:40:10;;;;;;;8.97;4.53;;;6.90;99.90;6.90;100401.00;;;;4916295;28;92527;-63
2021/11/22 00:42:38;;;;;;;5.53;3.70;;;7.00;99.90;6.90;100411.00;;;;4927063;28;93894;-65
2021/11/22 00:45:05;;;;;;;9.07;3.80;;;7.00;99.90;6.90;100405.00;;;;4927990;28;93042;-64
2021/11/22 00:47:33;;;;;;;9.73;3.90;;;7.00;99.90;6.90;100417.00;;;;4915533;28;93904;-63
2021/11/22 00:49:59;;;;;;;6.27;4.60;;;7.00;99.90;6.90;100416.00;;;;4916310;28;92733;-61
2021/11/22 00:52:24;;;;;;;9.63;5.10;;;7.00;99.90;7.00;100417.00;;;;4916053;28;92852;-62
2021/11/22 00:54:53;;;;;;;6.80;4.60;;;7.00;99.90;7.00;100414.00;;;;4914321;28;123856;-63
2021/11/22 00:57:19;;;;;;;7.57;4.93;;;7.10;99.90;7.00;100431.00;;;;4914569;28;121800;-62
2021/11/22 00:59:44;;;;;;;14.63;7.03;;;7.00;99.90;7.00;100441.00;;;;4915701;28;109312;-61
2021/11/22 01:02:10;;;;;;;5.60;4.43;;;7.10;99.90;7.00;100444.00;;;;4914728;28;109111;-62
2021/11/22 01:04:37;;;;;;;6.77;5.00;;;7.20;99.90;7.10;100445.00;;;;4914977;28;116591;-62
2021/11/22 01:07:04;;;;;;;6.20;3.60;;;7.10;99.90;7.10;100450.00;;;;4914099;28;93938;-64
2021/11/22 01:09:30;;;;;;;4.13;3.70;;;7.20;99.90;7.10;100451.00;;;;4915591;28;94087;-64
2021/11/22 01:11:56;;;;;;;11.83;3.63;;;7.20;99.90;7.20;100456.00;;;;4934598;28;92754;-64
2021/11/22 01:14:22;;;;;;;6.87;4.20;;;7.20;99.90;7.20;100446.00;;;;4934706;28;93223;-64
2021/11/22 01:16:47;;;;;;;5.90;3.73;;;7.30;99.90;7.20;100460.00;;;;4930312;28;123509;-64
2021/11/22 01:19:13;;;;;;;7.20;4.13;;;7.30;99.90;7.20;100453.00;;;;4934246;28;110978;-64
2021/11/22 01:21:39;;;;;;;5.23;3.13;;;7.30;99.90;7.20;100453.00;;;;4934317;28;93212;-63
2021/11/22 01:24:05;;;;;;;6.03;3.70;;;7.50;99.90;7.20;100455.00;;;;4933492;28;93469;-63
2021/11/22 01:26:31;;;;;;;6.70;3.83;;;7.30;99.90;7.20;100459.00;;;;4934341;28;97729;-63
2021/11/22 01:28:57;;;;;;;5.50;3.40;;;7.40;99.90;7.30;100461.00;;;;4932137;28;92917;-63
2021/11/22 01:31:23;;;;;;;5.20;3.30;;;7.40;99.90;7.30;100462.00;;;;4914631;28;107338;-64
2021/11/22 01:33:48;;;;;;;5.70;3.30;;;7.40;99.90;7.30;100467.00;;;;4913526;28;124039;-63
2021/11/22 01:36:14;;;;;;;6.97;4.17;;;7.40;99.90;7.30;100466.00;;;;4913058;28;122588;-64
2021/11/22 01:38:40;;;;;;;5.23;3.40;;;7.40;99.90;7.30;100476.00;;;;4915632;28;92799;-65
2021/11/22 01:41:06;;;;;;;7.50;4.17;;;7.50;99.90;7.30;100469.00;;;;4914842;28;108833;-62
2021/11/22 01:43:33;;;;;;;5.97;3.40;;;7.50;99.90;7.30;100461.00;;;;4916118;28;93246;-63
2021/11/22 01:45:59;;;;;;;4.97;3.43;;;7.40;99.90;7.30;100465.00;;;;4923014;28;93559;-63
2021/11/22 01:48:25;;;;;;;8.47;4.13;;;7.50;99.90;7.30;100476.00;;;;4915657;28;92243;-63
2021/11/22 01:50:53;;;;;;;7.40;3.67;;;7.50;99.90;7.30;100477.00;;;;4915440;28;92880;-64
2021/11/22 01:53:23;;;;;;;8.67;3.63;;;7.40;99.90;7.30;100477.00;;;;4914439;28;93573;-63
2021/11/22 01:55:51;;;;;;;5.80;2.93;;;7.50;99.90;7.30;100483.00;;;;4914519;28;93995;-64
2021/11/22 01:58:17;;;;;;;7.10;4.17;;;7.40;99.90;7.30;100482.00;;;;4934411;28;95773;-63
2021/11/22 02:00:51;;;;;;;4.17;3.57;;;7.40;99.90;7.30;100483.00;;;;4933755;28;92921;-63
2021/11/22 02:03:18;;;;;;;5.67;3.97;;;7.40;99.90;7.30;100477.00;;;;4934084;28;93026;-64
2021/11/22 02:05:45;;;;;;;8.57;3.90;;;7.40;99.90;7.30;100481.00;;;;4924373;28;93733;-63
2021/11/22 02:08:12;;;;;;;11.77;4.60;;;7.40;99.90;7.30;100482.00;;;;4915170;28;92757;-64
2021/11/22 02:10:38;;;;;;;8.03;3.40;;;7.40;99.90;7.30;100486.00;;;;4915338;28;92965;-63
2021/11/22 02:13:04;;;;;;;5.63;3.40;;;7.50;99.90;7.40;100480.00;;;;4921409;28;94991;-64
2021/11/22 02:15:31;;;;;;;6.17;4.10;;;7.50;99.90;7.40;100492.00;;;;4921216;28;93403;-64
2021/11/22 02:17:57;;;;;;;5.83;3.23;;;7.50;99.90;7.40;100489.00;;;;4934687;28;92891;-65
2021/11/22 02:20:27;;;;;;;4.00;2.90;;;7.50;99.90;7.40;100494.00;;;;4926823;28;93764;-64
2021/11/22 02:22:57;;;;;;;12.73;4.27;;;7.40;99.90;7.40;100492.00;;;;4914452;28;93642;-63
2021/11/22 02:25:25;;;;;;;4.87;3.33;;;7.50;99.90;7.40;100493.00;;;;4916461;28;94173;-64
2021/11/22 02:27:53;;;;;;;6.30;3.93;;;7.50;99.90;7.40;100489.00;;;;4933081;28;93838;-65
2021/11/22 02:30:29;;;;;;;9.00;3.90;;;7.50;99.90;7.40;100497.00;;;;4934285;28;93052;-65
2021/11/22 02:32:58;;;;;;;6.77;3.23;;;7.50;99.90;7.40;100499.00;;;;4933201;28;94302;-65
2021/11/22 02:35:25;;;;;;;3.97;2.87;;;7.40;99.90;7.30;100486.00;;;;4932800;28;93476;-64
2021/11/22 02:37:51;;;;;;;5.03;2.30;;;7.50;99.90;7.30;100502.00;;;;4934429;28;91899;-64
2021/11/22 02:40:18;;;;;;;8.30;3.23;;;7.40;99.90;7.30;100497.00;;;;4931384;28;92733;-64
2021/11/22 02:42:45;;;;;;;7.53;3.40;;;7.40;99.90;7.30;100493.00;;;;4914244;28;93395;-63
2021/11/22 02:45:14;;;;;;;6.37;3.37;;;7.40;99.90;7.30;100502.00;;;;4917978;28;93815;-62
2021/11/22 02:47:42;;;;;;;3.70;2.40;;;7.40;99.90;7.30;100503.00;;;;4933965;28;92764;-64
2021/11/22 02:50:11;;;;;;;5.63;2.83;;;7.40;99.90;7.30;100513.00;;;;4934452;28;92771;-61
2021/11/22 02:52:41;;;;;;;7.07;2.77;;;7.40;99.90;7.30;100517.00;;;;4933111;28;93617;-61
2021/11/22 02:55:12;;;;;;;4.03;2.83;;;7.40;99.90;7.30;100516.00;;;;4933492;28;92837;-62
2021/11/22 02:57:38;;;;;;;7.27;4.00;;;7.40;99.90;7.30;100524.00;;;;4933399;28;92818;-62
2021/11/22 03:00:12;;;;;;;5.93;2.93;;;7.40;99.90;7.40;100523.00;;;;4929779;28;92759;-63
2021/11/22 03:02:38;;;;;;;6.80;3.30;;;7.50;99.90;7.40;100537.00;;;;4914436;28;93800;-64
2021/11/22 03:05:05;;;;;;;8.40;3.40;;;7.40;99.90;7.30;100537.00;;;;4913619;28;93095;-63
2021/11/22 03:07:30;;;;;;;6.93;3.47;;;7.40;99.90;7.30;100540.00;;;;4913725;28;97455;-63
2021/11/22 03:09:56;;;;;;;3.70;2.70;;;7.70;99.90;7.30;100548.00;;;;4916312;28;108593;-62
2021/11/22 03:12:22;;;;;;;5.10;2.97;;;7.40;99.90;7.30;100551.00;;;;4913758;28;93190;-63
2021/11/22 03:14:48;;;;;;;3.60;3.00;;;7.40;99.90;7.30;100553.00;;;;4913920;28;116573;-61
2021/11/22 03:17:14;;;;;;;7.13;3.17;;;7.40;99.90;7.30;100545.00;;;;4913194;28;105206;-63
2021/11/22 03:19:40;;;;;;;6.53;3.40;;;7.40;99.90;7.30;100545.00;;;;4913177;28;92860;-63
2021/11/22 03:22:06;;;;;;;5.87;3.57;;;7.40;99.90;7.30;100555.00;;;;4912368;28;121110;-63
2021/11/22 03:24:32;;;;;;;4.80;2.90;;;7.50;99.90;7.20;100550.00;;;;4926693;28;122446;-63
2021/11/22 03:27:00;;;;;;;4.43;2.97;;;7.40;99.90;7.30;100555.00;;;;4932505;28;91968;-62
2021/11/22 03:29:25;;;;;;;5.40;3.17;;;7.40;99.90;7.30;100558.00;;;;4930512;28;92691;-63
2021/11/22 03:31:52;;;;;;;4.83;2.90;;;7.40;99.90;7.30;100566.00;;;;4915491;28;93937;-63
2021/11/22 03:34:18;;;;;;;3.27;2.50;;;7.40;99.90;7.30;100561.00;;;;4917699;28;93679;-62
2021/11/22 03:36:44;;;;;;;3.70;2.63;;;7.40;99.90;7.20;100569.00;;;;4922714;28;93118;-63
2021/11/22 03:39:20;;;;;;;5.63;3.37;;;7.40;99.90;7.20;100579.00;;;;4917541;28;92785;-63
2021/11/22 03:41:46;;;;;;;5.87;3.67;;;7.30;99.90;7.20;100572.00;;;;4934715;28;93460;-63
2021/11/22 03:44:15;;;;;;;8.30;3.07;;;7.40;99.90;7.20;100583.00;;;;4936132;28;93364;-62
2021/11/22 03:46:45;;;;;;;3.13;2.30;;;7.30;99.90;7.20;100587.00;;;;4918990;28;92527;-63
2021/11/22 03:49:11;;;;;;;6.00;3.33;;;7.30;99.90;7.10;100575.00;;;;4917089;28;92888;-64
2021/11/22 03:51:37;;;;;;;4.93;3.30;;;7.30;99.90;7.10;100582.00;;;;4916656;28;92288;-64
2021/11/22 03:54:04;;;;;;;3.57;2.50;;;7.20;99.90;7.10;100591.00;;;;4916168;28;102290;-63
2021/11/22 03:56:30;;;;;;;4.77;3.03;;;7.20;99.90;7.10;100594.00;;;;4916930;28;92841;-62
2021/11/22 03:58:55;;;;;;;4.73;2.47;;;7.20;99.90;7.10;100601.00;;;;4916019;28;93877;-62
2021/11/22 04:01:21;;;;;;;4.67;3.13;;;7.20;99.90;7.10;100601.00;;;;4915602;28;122976;-61
2021/11/22 04:03:48;;;;;;;3.93;3.03;;;7.20;99.90;7.10;100601.00;;;;4916491;28;93825;-64
2021/11/22 04:06:15;;;;;;;3.50;2.80;;;7.20;99.90;7.10;100611.00;;;;4916811;28;93107;-64
2021/11/22 04:08:41;;;;;;;7.90;3.77;;;7.20;99.90;7.10;100617.00;;;;4916889;28;92975;-63
2021/11/22 04:11:08;;;;;;;4.63;3.20;;;7.20;99.90;7.10;100615.00;;;;4935819;28;93877;-62
2021/11/22 04:13:33;;;;;;;4.00;2.70;;;7.30;99.90;7.10;100616.00;;;;4935106;28;109006;-63
2021/11/22 04:16:00;;;;;;;5.73;3.30;;;7.20;99.90;7.10;100614.00;;;;4934574;28;92260;-63
2021/11/22 04:18:26;;;;;;;5.10;2.90;;;7.30;99.90;7.20;100613.00;;;;4935791;28;92981;-64
2021/11/22 04:20:52;;;;;;;4.40;2.93;;;7.30;99.90;7.20;100617.00;;;;4934529;28;123294;-63
2021/11/22 04:23:17;;;;;;;6.20;4.00;;;7.30;99.90;7.20;100620.00;;;;4934032;28;122260;-63
2021/11/22 04:25:43;;;;;;;7.83;3.80;;;7.30;99.90;7.20;100631.00;;;;4929645;28;110877;-63
2021/11/22 04:28:10;;;;;;;5.50;3.60;;;7.30;99.90;7.20;100625.00;;;;4916462;28;109190;-64
2021/11/22 04:30:37;;;;;;;6.80;3.00;;;7.30;99.90;7.20;100635.00;;;;4916144;28;93137;-64
2021/11/22 04:33:03;;;;;;;5.97;3.77;;;7.30;99.90;7.20;100647.00;;;;4916073;28;92958;-63
2021/11/22 04:35:30;;;;;;;7.03;3.10;;;7.30;99.90;7.20;100646.00;;;;4916993;28;98899;-63
2021/11/22 04:37:56;;;;;;;5.27;3.17;;;7.30;99.90;7.20;100648.00;;;;4915486;28;92887;-65
2021/11/22 04:40:21;;;;;;;7.80;4.17;;;7.50;99.90;7.20;100667.00;;;;4916188;28;93387;-63
2021/11/22 04:42:49;;;;;;;4.47;2.83;;;7.40;99.90;7.20;100674.00;;;;4914436;28;92940;-63
2021/11/22 04:45:18;;;;;;;7.10;4.27;;;7.30;99.90;7.20;100663.00;;;;4915414;28;92769;-63
2021/11/22 04:47:45;;;;;;;7.87;4.60;;;7.30;99.90;7.20;100671.00;;;;4914387;28;94075;-63
2021/11/22 04:50:11;;;;;;;9.07;4.13;;;7.30;99.90;7.10;100679.00;;;;4915946;28;93603;-64
2021/11/22 04:52:37;;;;;;;6.93;4.27;;;7.30;99.90;7.10;100685.00;;;;4915492;28;93079;-64
2021/11/22 04:55:04;;;;;;;5.93;4.63;;;7.30;99.90;7.10;100679.00;;;;4917244;28;92816;-63
2021/11/22 04:57:30;;;;;;;8.50;5.27;;;7.20;99.90;7.10;100680.00;;;;4934644;28;92904;-64
2021/11/22 04:59:56;;;;;;;8.17;4.70;;;7.20;99.90;7.10;100676.00;;;;4934798;28;94137;-64
2021/11/22 05:02:22;;;;;;;6.33;4.63;;;7.20;99.90;7.00;100676.00;;;;4934206;28;93894;-65
2021/11/22 05:04:48;;;;;;;6.73;4.77;;;7.10;99.90;7.00;100680.00;;;;4935740;28;92348;-64
2021/11/22 05:07:14;;;;;;;10.00;4.23;;;7.10;99.90;7.00;100687.00;;;;4933558;28;109560;-65
2021/11/22 05:09:40;;;;;;;8.87;5.23;;;7.10;99.90;7.00;100696.00;;;;4926661;28;94195;-64
2021/11/22 05:12:07;;;;;;;7.83;5.43;;;7.10;99.90;7.00;100700.00;;;;4914550;28;93848;-63
2021/11/22 05:14:33;;;;;;;8.23;4.40;;;7.10;99.90;7.00;100709.00;;;;4916000;28;92761;-63
2021/11/22 05:16:58;;;;;;;8.50;4.27;;;7.10;99.90;7.00;100708.00;;;;4916370;28;93323;-63
2021/11/22 05:19:30;;;;;;;5.37;3.70;;;7.10;99.90;7.00;100716.00;;;;4914365;28;123717;-63
2021/11/22 05:21:57;;;;;;;7.60;4.03;;;7.10;99.90;7.00;100716.00;;;;4914821;28;94214;-63
2021/11/22 05:24:23;;;;;;;5.70;4.13;;;7.10;99.90;7.00;100717.00;;;;4928660;28;92834;-63
2021/11/22 05:26:49;;;;;;;5.93;4.40;;;7.10;99.90;7.00;100722.00;;;;4933448;28;92740;-62
2021/11/22 05:29:15;;;;;;;8.50;4.23;;;7.10;99.90;7.00;100730.00;;;;4932782;28;92453;-63
2021/11/22 05:31:41;;;;;;;5.67;3.37;;;7.10;99.90;7.00;100728.00;;;;4930600;28;92814;-64
2021/11/22 05:34:07;;;;;;;5.20;3.37;;;7.10;99.90;7.00;100738.00;;;;4923211;28;110444;-63
2021/11/22 05:36:35;;;;;;;7.73;3.60;;;7.10;99.90;7.00;100735.00;;;;4933268;28;93925;-64
2021/11/22 05:39:03;;;;;;;4.67;2.73;;;7.10;99.90;7.00;100739.00;;;;4934210;28;93934;-65
2021/11/22 05:41:28;;;;;;;5.63;2.87;;;7.10;99.90;7.00;100747.00;;;;4931458;28;92987;-64
2021/11/22 05:43:54;;;;;;;2.87;2.50;;;7.10;99.90;7.00;100745.00;;;;4931070;28;100452;-63
2021/11/22 05:46:20;;;;;;;3.90;2.80;;;7.20;99.90;7.00;100747.00;;;;4931192;28;100252;-63
2021/11/22 05:48:45;;;;;;;5.13;3.00;;;7.10;99.90;7.00;100758.00;;;;4929453;28;123715;-64
2021/11/22 05:51:12;;;;;;;4.90;3.03;;;7.10;99.90;7.00;100763.00;;;;4929863;28;122156;-64
2021/11/22 05:53:43;;;;;;;4.43;3.00;;;7.10;99.90;7.00;100755.00;;;;4930851;28;92079;-64
2021/11/22 05:56:10;;;;;;;5.43;3.13;;;7.40;99.90;6.90;100761.00;;;;4930425;28;93085;-63
2021/11/22 05:58:36;;;;;;;3.40;2.60;;;7.10;99.90;6.90;100775.00;;;;4930690;28;93946;-64
2021/11/22 06:01:05;;;;;;;5.53;3.37;;;7.00;99.90;6.90;100762.00;;;;4930221;28;103048;-64
2021/11/22 06:03:31;;;;;;;5.93;4.20;;;7.00;99.90;6.90;100767.00;;;;4931090;28;93202;-63
2021/11/22 06:05:57;;;;;;;3.57;2.77;;;7.00;99.90;6.90;100775.00;;;;4931296;28;92798;-64
2021/11/22 06:08:24;;;;;;;4.93;2.63;;;7.00;99.90;6.80;100779.00;;;;4944580;28;95784;-64
2021/11/22 06:10:50;;;;;;;5.47;3.37;;;7.00;99.90;6.80;100780.00;;;;4930533;28;106863;-64
2021/11/22 06:13:17;;;;;;;4.53;3.10;;;6.90;99.90;6.80;100796.00;;;;4931041;28;93264;-65
2021/11/22 06:15:43;;;;;;;8.73;3.50;;;6.90;99.90;6.80;100790.00;;;;4930763;28;92713;-63
2021/11/22 06:18:10;;;;;;;2.97;2.77;;;6.90;99.90;6.80;100791.00;;;;4926743;28;107910;-63
2021/11/22 06:20:36;;;;;;;4.30;3.33;;;6.90;99.90;6.80;100791.00;;;;4930076;28;93557;-63
2021/11/22 06:23:02;;;;;;;3.40;3.10;;;6.90;99.90;6.70;100791.00;;;;4925475;28;93049;-63
2021/11/22 06:25:29;;;;;;;6.97;3.50;;;6.90;99.90;6.70;100798.00;;;;4930332;28;94026;-64
2021/11/22 06:27:54;;;;;;;4.03;2.97;;;7.10;99.90;6.70;100808.00;;;;4929728;28;107383;-62
2021/11/22 06:30:21;;;;;;;5.80;4.03;;;6.90;99.90;6.80;100814.00;;;;4925892;28;123058;-64
2021/11/22 06:32:47;;;;;;;5.13;3.17;;;6.90;99.90;6.80;100811.00;;;;4928529;28;92898;-63
2021/11/22 06:35:13;;;;;;;7.73;3.87;;;6.90;99.90;6.80;100817.00;;;;4923042;28;92913;-65
2021/11/22 06:37:39;;;;;;;7.73;4.57;;;6.90;99.90;6.80;100824.00;;;;4930785;28;93671;-64
2021/11/22 06:40:08;;;;;;;7.10;4.10;;;6.90;99.90;6.80;100837.00;;;;4929362;28;121727;-64
2021/11/22 06:42:34;;;;;;;4.87;3.50;;;6.70;99.90;6.80;100834.00;;;;4923846;28;92481;-64
2021/11/22 06:45:03;;;;;;;4.00;3.13;;;6.90;99.90;6.80;100839.00;;;;4928808;28;92964;-64
2021/11/22 06:47:29;;;;;;;7.77;4.03;;;6.90;99.90;6.70;100843.00;;;;4930402;28;92811;-64
2021/11/22 06:49:55;;;;;;;5.83;3.40;;;6.80;99.90;6.70;100849.00;;;;4929406;28;93783;-62
2021/11/22 06:52:22;;;;;;;7.40;3.40;;;6.80;99.90;6.70;100845.00;;;;4930579;28;92800;-62
2021/11/22 06:54:49;;;;;;;8.10;4.27;;;6.80;99.90;6.70;100862.00;;;;4928901;28;92697;-62
2021/11/22 06:57:15;;;;;;;7.63;4.57;;;6.80;99.90;6.70;100866.00;;;;4918846;28;93109;-64
2021/11/22 06:59:43;;;;;;;4.00;3.30;;;6.80;99.90;6.70;100869.00;;;;4922192;28;93659;-64
2021/11/22 07:02:13;;;;;;;6.13;3.70;;;6.80;99.90;6.70;100868.00;;;;4930681;28;93033;-64
2021/11/22 07:04:41;;;;;;;5.37;3.50;;;6.80;99.90;6.60;100867.00;;;;4928599;28;92883;-64
2021/11/22 07:07:08;;;;;;;5.07;2.90;;;6.80;99.90;6.60;100873.00;;;;4932150;28;107847;-63
2021/11/22 07:09:34;;;;;;;4.97;3.03;;;6.80;99.90;6.60;100865.00;;;;4933032;28;93087;-63
2021/11/22 07:12:00;;;;;;;5.13;2.97;;;6.70;99.90;6.60;100872.00;;;;4923289;28;93682;-65
2021/11/22 07:14:27;;;;;;;3.83;2.80;;;6.70;99.90;6.60;100881.00;;;;4931046;28;93875;-63
2021/11/22 07:16:53;;;;;;;3.00;2.20;;;6.70;99.90;6.60;100890.00;;;;4932799;28;93851;-63
2021/11/22 07:19:20;;;;;;;3.20;2.70;;;6.70;99.90;6.60;100898.00;;;;4929922;28;93433;-63
2021/11/22 07:21:46;;;;;;;4.37;2.60;;;6.70;99.90;6.60;100892.00;;;;4931949;28;92838;-64
2021/11/22 07:24:12;;;;;;;3.67;2.60;;;6.70;99.90;6.60;100895.00;;;;4921985;28;92817;-63
2021/11/22 07:26:38;;;;;;;3.97;2.87;;;6.70;99.90;6.60;100906.00;;;;4932279;28;93617;-63
2021/11/22 07:29:05;;;;;;;3.13;2.53;;;6.70;99.90;6.60;100909.00;;;;4926776;28;102063;-64
2021/11/22 07:31:31;;;;;;;5.07;2.90;;;6.70;99.90;6.60;100904.00;;;;4929250;28;92065;-64
2021/11/22 07:34:00;;;;;;;2.83;2.27;;;6.70;99.90;6.60;100911.00;;;;4925005;28;94586;-63
2021/11/22 07:36:26;;;;;;;2.40;2.20;;;6.70;99.90;6.60;100914.00;;;;4929527;28;122213;-62
2021/11/22 07:38:52;;;;;;;3.20;2.23;;;6.80;99.90;6.60;100920.00;;;;4924300;28;123222;-64
2021/11/22 07:41:18;;;;;;;4.10;2.57;;;6.70;99.90;6.60;100919.00;;;;4932817;28;108409;-64
2021/11/22 07:43:44;;;;;;;3.10;2.17;;;6.80;99.90;6.60;100922.00;;;;4932989;28;93038;-64
2021/11/22 07:46:09;;;;;;;4.77;3.47;;;6.80;99.90;6.60;100933.00;;;;4927763;28;97001;-63
2021/11/22 07:48:35;;;;;;;6.57;2.67;;;6.70;99.90;6.70;100938.00;;;;4931127;28;122149;-63
2021/11/22 07:51:03;;;;;;;3.10;2.07;;;6.80;99.90;6.60;100925.00;;;;4927245;28;93029;-62
2021/11/22 07:53:29;;;;;;;5.67;2.27;;;6.80;99.90;6.70;100932.00;;;;4932766;28;93352;-63
2021/11/22 07:55:55;;;;;;;3.30;2.40;;;6.60;99.90;6.70;100937.00;;;;4929080;28;92552;-62
2021/11/22 07:58:21;;;;;;;3.10;2.20;;;6.80;99.90;6.70;100941.00;;;;4932682;28;93088;-62
2021/11/22 08:00:47;;;;;;;3.13;2.20;;;6.80;99.90;6.70;100949.00;;;;4931663;28;110522;-62
2021/11/22 08:03:13;;;;;;;5.83;2.67;;;6.80;99.90;6.70;100949.00;;;;4933323;28;94186;-61
2021/11/22 08:05:39;;;;;;;4.03;2.60;;;6.90;99.90;6.80;100952.00;;;;4925723;28;93158;-62
2021/11/22 08:08:05;;;;;;;3.57;2.50;;;6.90;99.90;6.80;100962.00;;;;4932406;28;93657;-61
2021/11/22 08:10:33;;;;;;;3.50;2.27;;;6.90;99.90;6.80;100965.00;;;;4930678;28;101281;-62
2021/11/22 08:13:06;;;;;;;3.00;2.17;;;6.90;99.90;6.80;100960.00;;;;4933033;28;92837;-62
2021/11/22 08:15:35;;;;;;;4.47;3.10;;;7.00;99.90;6.80;100964.00;;;;4932302;28;93524;-61
2021/11/22 08:18:07;;;;;;;2.97;2.53;;;7.00;99.90;6.80;100971.00;;;;4927680;28;93099;-62
2021/11/22 08:20:33;;;;;;;7.03;2.93;;;7.00;99.90;6.80;100978.00;;;;4923445;28;92306;-63
2021/11/22 08:22:59;;;;;;;6.23;2.57;;;7.00;99.90;6.90;100992.00;;;;4932464;28;92831;-63
2021/11/22 08:25:33;;;;;;;4.27;2.70;;;7.00;99.90;6.90;100983.00;;;;4926218;28;93492;-63
2021/11/22 08:28:00;;;;;;;3.10;2.33;;;7.00;99.90;6.90;100988.00;;;;4931718;28;93834;-62
2021/11/22 08:30:28;;;;;;;2.53;2.23;;;7.00;99.90;6.90;101002.00;;;;4926719;28;102763;-64
2021/11/22 08:32:56;;;;;;;5.20;3.23;;;7.00;99.90;6.90;101006.00;;;;4932481;28;92748;-62
2021/11/22 08:35:22;;;;;;;5.10;2.77;;;7.20;99.90;6.90;101008.00;;;;4926126;28;94039;-62
2021/11/22 08:37:49;;;;;;;5.77;3.00;;;7.00;99.90;6.80;101017.00;;;;4930477;28;95324;-62
2021/11/22 08:40:21;;;;;;;4.00;2.50;;;7.00;99.90;6.80;101021.00;;;;4929018;28;92943;-63
2021/11/22 08:42:47;;;;;;;5.63;2.77;;;7.00;99.90;6.80;101024.00;;;;4925044;28;93053;-62
2021/11/22 08:45:14;;;;;;;3.87;2.17;;;7.00;99.90;6.80;101033.00;;;;4931038;28;93386;-63
2021/11/22 08:47:40;;;;;;;3.37;2.33;;;7.00;99.90;6.80;101038.00;;;;4930553;28;93156;-63
2021/11/22 08:50:08;;;;;;;4.43;2.87;;;6.90;99.90;6.80;101032.00;;;;4929128;28;92824;-63
2021/11/22 08:52:35;;;;;;;4.80;2.73;;;7.00;99.90;6.80;101038.00;;;;4931053;28;93918;-63
2021/11/22 08:55:04;;;;;;;3.13;2.40;;;6.90;99.90;6.80;101047.00;;;;4926968;28;93108;-62
2021/11/22 08:57:29;;;;;;;4.87;2.97;;;6.90;99.90;6.80;101044.00;;;;4926756;28;93322;-62
2021/11/22 08:59:55;;;;;;;3.67;2.87;;;7.00;99.90;6.80;101053.00;;;;4929733;28;111656;-61
2021/11/22 09:02:21;;;;;;;4.13;2.93;;;6.90;99.90;6.90;101054.00;;;;4931826;28;93087;-62
2021/11/22 09:04:49;;;;;;;4.20;2.73;;;6.90;99.90;6.90;101061.00;;;;4927922;28;94365;-62
2021/11/22 09:07:16;;;;;;;8.90;3.17;;;7.00;99.90;6.90;101053.00;;;;4931708;28;93968;-63
2021/11/22 09:09:42;;;;;;;2.87;2.03;;;7.00;99.90;6.90;101065.00;;;;4931880;28;92358;-63
2021/11/22 09:12:07;;;;;;;2.40;2.03;;;7.00;99.90;7.00;101066.00;;;;4930545;28;92775;-63
2021/11/22 09:14:33;;;;;;;2.83;2.57;;;7.00;99.90;7.00;101080.00;;;;4930510;28;93978;-63
2021/11/22 09:17:00;;;;;;;4.90;3.00;;;7.00;99.90;7.00;101074.00;;;;4930480;28;101325;-63
2021/11/22 09:19:26;;;;;;;3.13;2.40;;;7.10;99.90;7.00;101077.00;;;;4932015;28;92706;-62
2021/11/22 09:21:51;;;;;;;1.90;1.80;;;7.10;99.90;7.00;101084.00;;;;4928902;28;93008;-63
2021/11/22 09:24:18;;;;;;;4.07;2.97;;;7.10;99.90;7.00;101082.00;;;;4931478;28;93449;-63
2021/11/22 09:26:43;;;;;;;2.77;2.33;;;7.10;99.90;7.00;101078.00;;;;4930789;28;111388;-63
2021/11/22 09:29:09;;;;;;;2.80;2.13;;;7.10;99.90;7.00;101081.00;;;;4929451;28;111571;-63
2021/11/22 09:31:36;;;;;;;4.50;2.70;;;7.10;99.90;7.00;101088.00;;;;4932244;28;97422;-63
2021/11/22 09:34:01;;;;;;;4.00;3.47;;;7.10;99.90;7.10;101087.00;;;;4931406;28;92497;-64
2021/11/22 09:36:27;;;;;;;2.90;2.33;;;7.20;99.90;7.10;101095.00;;;;4930890;28;93285;-62
2021/11/22 09:38:54;;;;;;;1.67;1.57;;;8.40;99.90;7.10;101104.00;;;;4929055;28;93057;-63
2021/11/22 09:41:23;;;;;;;3.13;2.50;;;7.20;99.90;7.20;101095.00;;;;4931122;28;93933;-62
2021/11/22 09:43:49;;;;;;;4.37;2.43;;;7.30;99.90;7.20;101114.00;;;;4930917;28;93965;-62
2021/11/22 09:46:15;;;;;;;5.20;1.67;;;7.20;99.90;7.20;101101.00;;;;4925902;28;92696;-62
2021/11/22 09:48:42;;;;;;;2.03;1.40;;;7.30;99.90;7.30;101103.00;;;;4928421;28;103017;-63
2021/11/22 09:51:10;;;;;;;2.07;1.80;;;7.30;99.90;7.30;101105.00;;;;4930810;28;93000;-62
2021/11/22 09:53:40;;;;;;;4.07;2.13;;;7.40;99.90;7.30;101106.00;;;;4931157;28;93470;-63
2021/11/22 09:56:06;;;;;;;4.17;2.53;;;7.40;99.90;7.40;101093.00;;;;4931316;28;93890;-62
2021/11/22 09:58:52;;;;;;;2.77;1.93;;;7.40;99.90;7.40;101108.00;;;;4930604;28;95130;-63
2021/11/22 10:01:19;;;;;;;5.90;2.43;;;7.50;99.90;7.50;101111.00;;;;4931839;28;93088;-63
2021/11/22 10:04:03;;;;;;;4.07;2.30;;;7.60;99.90;7.50;101108.00;;;;4930866;28;93505;-61
2021/11/22 10:06:46;;;;;;;3.43;2.43;;;7.50;99.90;7.50;101112.00;;;;4929771;28;93952;-62
2021/11/22 10:09:31;;;;;;;4.77;3.13;;;7.50;99.90;7.50;101105.00;;;;4930417;28;92837;-62
2021/11/22 10:12:01;;;;;;;3.67;2.53;;;7.60;99.90;7.60;101111.00;;;;4927446;28;92859;-63
2021/11/22 10:14:36;;;;;;;8.97;2.80;;;7.60;99.90;7.60;101124.00;;;;4931028;28;93055;-62
2021/11/22 10:17:02;;;;;;;3.83;2.30;;;7.70;99.90;7.70;101121.00;;;;4930103;28;93150;-63
2021/11/22 10:19:27;;;;;;;4.87;2.40;;;7.70;99.90;7.70;101126.00;;;;4931158;28;92938;-63
2021/11/22 10:21:53;;;;;;;5.23;2.67;;;7.80;99.90;7.70;101131.00;;;;4922640;28;107029;-62
2021/11/22 10:24:19;;;;;;;4.07;2.53;;;7.80;99.90;7.70;101125.00;;;;4928979;28;93259;-61
2021/11/22 10:26:48;;;;;;;5.40;3.50;;;7.80;99.90;7.70;101129.00;;;;4929967;28;121854;-61
2021/11/22 10:29:31;;;;;;;5.37;3.07;;;7.90;99.90;7.70;101128.00;;;;4923562;28;92998;-62
2021/11/22 10:32:01;;;;;;;4.57;2.97;;;7.80;99.90;7.80;101143.00;;;;4930406;28;93988;-61
2021/11/22 10:34:28;;;;;;;5.93;3.33;;;7.80;99.90;7.70;101142.00;;;;4929810;28;93503;-62
2021/11/22 10:36:57;;;;;;;2.80;2.23;;;7.80;99.90;7.70;101142.00;;;;4928310;28;93604;-63
2021/11/22 10:39:24;;;;;;;3.67;3.27;;;7.80;99.90;7.70;101136.00;;;;4931172;28;92756;-62
2021/11/22 10:41:50;;;;;;;2.33;2.10;;;7.80;99.90;7.80;101129.00;;;;4931895;28;93145;-61
2021/11/22 10:44:17;;;;;;;2.53;2.30;;;7.80;99.90;7.80;101150.00;;;;4933313;28;122959;-60
2021/11/22 10:46:56;;;;;;;2.23;1.60;;;7.90;99.90;7.80;101146.00;;;;4933027;28;122014;-62
2021/11/22 10:49:39;;;;;;;2.67;1.70;;;7.90;99.90;7.80;101147.00;;;;4934998;28;92066;-63
2021/11/22 10:52:16;;;;;;;2.33;1.67;;;7.80;99.90;7.90;101148.00;;;;4932466;28;92823;-62
2021/11/22 10:55:07;;;;;;;2.60;1.97;;;7.90;99.90;7.90;101145.00;;;;4933827;28;93553;-61
2021/11/22 10:57:46;;;;;;;1.67;1.57;;;8.00;99.90;8.00;101153.00;;;;4923173;28;109483;-63
2021/11/22 11:00:18;;;;;;;2.60;1.80;;;8.10;99.90;8.00;101150.00;;;;4931109;28;92771;-61